Time;durP1;ratioP1;P1;durP2;ratioP2;P2;SDS_P1;SDS_P2;PMS_P1;PMS_P2;Temp;Humidity;BMP_temperature;BMP_pressure;BME280_temperature;BME280_humidity;BME280_pressure;Samples;Min_cycle;Max_cycle;Signal;HPM_P1;HPM_P2
2024/01/07 00:00:53;;;;;;;0.00;0.00;;;25.00;50.00;;;;;;5108543;28;20224;-47
2024/01/07 00:03:24;;;;;;;0.00;0.00;;;25.10;50.60;;;;;;5108536;28;20282;-48
2024/01/07 00:05:56;;;;;;;0.05;0.05;;;25.10;49.90;;;;;;5108579;28;20220;-44
2024/01/07 00:08:27;;;;;;;0.00;0.00;;;25.10;50.00;;;;;;5107743;28;20200;-44
2024/01/07 00:10:58;;;;;;;0.00;0.00;;;25.10;50.00;;;;;;5088161;28;20607;-46
2024/01/07 00:13:28;;;;;;;0.00;0.00;;;25.10;50.00;;;;;;5096270;28;20202;-44
2024/01/07 00:15:59;;;;;;;0.00;0.00;;;25.20;50.10;;;;;;5108825;22;20729;-49
2024/01/07 00:18:30;;;;;;;0.00;0.00;;;25.20;50.10;;;;;;5087653;28;20197;-48
2024/01/07 00:21:03;;;;;;;0.00;0.00;;;25.20;50.00;;;;;;5087593;28;20214;-49
2024/01/07 00:23:33;;;;;;;0.00;0.00;;;25.30;50.10;;;;;;5087962;28;20662;-48
2024/01/07 00:26:04;;;;;;;0.00;0.00;;;25.30;50.10;;;;;;5088110;28;20256;-51
2024/01/07 00:28:35;;;;;;;0.00;0.00;;;25.30;49.90;;;;;;5087595;28;20891;-50
2024/01/07 00:31:07;;;;;;;0.00;0.00;;;25.30;49.90;;;;;;5087322;28;20284;-48
2024/01/07 00:33:38;;;;;;;0.00;0.00;;;25.30;49.90;;;;;;5087887;28;20220;-50
2024/01/07 00:36:11;;;;;;;0.00;0.00;;;25.40;49.90;;;;;;5087610;28;20206;-50
2024/01/07 00:38:42;;;;;;;0.00;0.00;;;25.40;49.90;;;;;;5088027;28;20221;-49
2024/01/07 00:41:12;;;;;;;0.00;0.00;;;25.40;49.90;;;;;;5087288;28;20208;-51
2024/01/07 00:43:43;;;;;;;0.00;0.00;;;25.50;49.80;;;;;;5088009;28;20198;-48
2024/01/07 00:46:14;;;;;;;0.03;0.03;;;25.50;49.80;;;;;;5087080;28;20233;-50
2024/01/07 00:48:45;;;;;;;0.00;0.00;;;25.50;49.80;;;;;;5086564;28;20311;-50
2024/01/07 00:51:16;;;;;;;0.00;0.00;;;25.50;49.80;;;;;;5087119;28;20209;-52
2024/01/07 00:53:47;;;;;;;0.00;0.00;;;25.50;49.80;;;;;;5086375;28;20233;-49
2024/01/07 00:56:17;;;;;;;0.00;0.00;;;25.50;49.70;;;;;;5087636;28;20228;-49
2024/01/07 00:58:48;;;;;;;0.00;0.00;;;25.50;49.70;;;;;;5087005;28;20892;-49
2024/01/07 01:01:19;;;;;;;0.00;0.00;;;25.60;49.70;;;;;;5087264;28;20198;-48
2024/01/07 01:03:49;;;;;;;0.00;0.00;;;25.60;49.70;;;;;;5091085;28;20209;-49
2024/01/07 01:06:22;;;;;;;0.00;0.00;;;25.60;49.60;;;;;;5091376;28;20228;-49
2024/01/07 01:08:53;;;;;;;0.00;0.00;;;25.60;49.40;;;;;;5090973;28;20187;-49
2024/01/07 01:11:23;;;;;;;0.00;0.00;;;25.60;49.40;;;;;;5091015;28;20198;-48
2024/01/07 01:13:54;;;;;;;0.00;0.00;;;25.70;49.40;;;;;;5090561;28;20674;-51
2024/01/07 01:16:25;;;;;;;0.00;0.00;;;25.70;49.30;;;;;;5090909;28;20259;-49
2024/01/07 01:18:56;;;;;;;0.00;0.00;;;25.70;49.30;;;;;;5090149;28;20186;-48
2024/01/07 01:21:28;;;;;;;0.00;0.00;;;25.70;49.30;;;;;;5090548;28;20213;-49
2024/01/07 01:24:00;;;;;;;0.00;0.00;;;25.70;49.10;;;;;;5090843;28;20190;-48
2024/01/07 01:26:30;;;;;;;0.00;0.00;;;25.70;48.90;;;;;;5090163;28;20313;-50
2024/01/07 01:29:01;;;;;;;0.00;0.00;;;25.80;48.90;;;;;;5091295;28;20595;-50
2024/01/07 01:31:32;;;;;;;0.00;0.00;;;25.80;48.80;;;;;;5089902;28;20197;-51
2024/01/07 01:34:02;;;;;;;0.00;0.00;;;25.80;48.40;;;;;;5090201;28;20556;-48
2024/01/07 01:36:37;;;;;;;0.00;0.00;;;25.80;48.50;;;;;;5090293;28;20194;-50
2024/01/07 01:39:07;;;;;;;0.00;0.00;;;25.90;48.30;;;;;;5089703;28;20583;-49
2024/01/07 01:41:38;;;;;;;0.00;0.00;;;25.80;48.20;;;;;;5090240;28;20208;-48
2024/01/07 01:44:09;;;;;;;0.00;0.00;;;25.90;48.20;;;;;;5089748;28;20658;-48
2024/01/07 01:46:40;;;;;;;0.00;0.00;;;25.90;48.10;;;;;;5090064;28;20225;-50
2024/01/07 01:49:11;;;;;;;0.00;0.00;;;25.90;48.00;;;;;;5089489;28;20214;-49
2024/01/07 01:51:45;;;;;;;0.00;0.00;;;25.90;48.10;;;;;;5086606;28;21488;-48
2024/01/07 01:54:16;;;;;;;0.00;0.00;;;25.90;48.20;;;;;;5080050;28;20190;-53
2024/01/07 01:56:47;;;;;;;0.00;0.00;;;25.90;48.10;;;;;;5091194;28;20285;-48
2024/01/07 01:59:18;;;;;;;0.00;0.00;;;25.90;48.00;;;;;;5090809;28;20222;-51
2024/01/07 02:01:49;;;;;;;0.00;0.00;;;25.90;47.90;;;;;;5089243;28;20194;-47
2024/01/07 02:04:20;;;;;;;0.00;0.00;;;25.90;47.60;;;;;;5090389;28;20197;-50
2024/01/07 02:06:52;;;;;;;0.00;0.00;;;26.00;48.20;;;;;;5089904;28;20197;-48
2024/01/07 02:09:23;;;;;;;0.00;0.00;;;26.00;47.50;;;;;;5089605;28;20210;-49
2024/01/07 02:12:05;;;;;;;0.00;0.00;;;26.00;47.30;;;;;;5089512;28;20213;-49
2024/01/07 02:14:35;;;;;;;0.00;0.00;;;26.00;47.40;;;;;;5088761;28;20197;-49
2024/01/07 02:17:06;;;;;;;0.00;0.00;;;26.10;47.50;;;;;;5088339;28;20198;-48
2024/01/07 02:19:37;;;;;;;0.00;0.00;;;26.10;47.40;;;;;;5110187;22;20240;-43
2024/01/07 02:22:10;;;;;;;0.00;0.00;;;26.10;47.30;;;;;;5110605;28;20200;-43
2024/01/07 02:24:42;;;;;;;0.00;0.00;;;26.10;47.30;;;;;;5099494;28;20197;-41
2024/01/07 02:27:13;;;;;;;0.00;0.00;;;26.10;47.20;;;;;;5089723;28;20288;-44
2024/01/07 02:29:44;;;;;;;0.00;0.00;;;26.10;47.20;;;;;;5089811;28;20217;-41
2024/01/07 02:32:14;;;;;;;0.00;0.00;;;26.10;47.60;;;;;;5089035;28;20201;-43
2024/01/07 02:34:46;;;;;;;0.00;0.00;;;26.20;47.00;;;;;;5088580;28;20196;-42
2024/01/07 02:37:17;;;;;;;0.00;0.00;;;26.20;47.00;;;;;;5089493;28;20714;-44
2024/01/07 02:39:50;;;;;;;0.00;0.00;;;26.20;46.90;;;;;;5089184;28;20222;-42
2024/01/07 02:42:21;;;;;;;0.00;0.00;;;26.20;46.70;;;;;;5089445;28;20198;-43
2024/01/07 02:44:51;;;;;;;0.00;0.00;;;26.20;46.80;;;;;;5089450;28;20617;-41
2024/01/07 02:47:22;;;;;;;0.00;0.00;;;26.20;46.70;;;;;;5087923;28;20202;-42
2024/01/07 02:49:53;;;;;;;0.00;0.00;;;26.20;46.70;;;;;;5088404;28;20237;-47
2024/01/07 02:52:23;;;;;;;0.00;0.00;;;26.20;46.70;;;;;;5089261;28;20197;-43
2024/01/07 02:54:56;;;;;;;0.00;0.00;;;26.20;46.70;;;;;;5089661;28;20194;-43
2024/01/07 02:57:27;;;;;;;0.00;0.00;;;26.20;46.90;;;;;;5088590;28;20198;-41
2024/01/07 02:59:57;;;;;;;0.00;0.00;;;26.20;46.80;;;;;;5094905;28;20582;-42
2024/01/07 03:02:28;;;;;;;0.00;0.00;;;26.30;46.70;;;;;;5088236;28;20209;-41
2024/01/07 03:04:59;;;;;;;0.00;0.00;;;26.30;46.70;;;;;;5089340;28;20697;-41
2024/01/07 03:07:29;;;;;;;0.00;0.00;;;26.30;46.60;;;;;;5088845;28;20202;-44
2024/01/07 03:10:02;;;;;;;0.00;0.00;;;26.30;46.60;;;;;;5089080;28;20213;-44
2024/01/07 03:12:33;;;;;;;0.00;0.00;;;26.30;46.50;;;;;;5089285;28;20198;-46
2024/01/07 03:15:04;;;;;;;0.00;0.00;;;26.40;46.60;;;;;;5087989;28;20577;-43
2024/01/07 03:17:35;;;;;;;0.00;0.00;;;26.40;46.60;;;;;;5089188;28;20205;-44
2024/01/07 03:20:06;;;;;;;0.00;0.00;;;26.40;46.50;;;;;;5099834;28;20684;-41
2024/01/07 03:22:37;;;;;;;0.00;0.00;;;26.40;46.50;;;;;;5087247;28;20686;-43
2024/01/07 03:25:11;;;;;;;0.00;0.00;;;26.40;46.60;;;;;;5086989;28;20247;-41
2024/01/07 03:27:41;;;;;;;0.00;0.00;;;26.40;46.50;;;;;;5078342;28;20183;-42
2024/01/07 03:30:13;;;;;;;0.00;0.00;;;26.40;47.20;;;;;;5091391;28;20214;-41
2024/01/07 03:32:43;;;;;;;0.00;0.00;;;26.40;46.60;;;;;;5090833;28;20195;-41
2024/01/07 03:35:14;;;;;;;0.00;0.00;;;26.40;46.60;;;;;;5092087;28;20202;-41
2024/01/07 03:37:45;;;;;;;0.00;0.00;;;26.40;46.60;;;;;;5091837;28;20202;-41
2024/01/07 03:40:17;;;;;;;0.00;0.00;;;26.40;46.60;;;;;;5091323;28;20214;-40
2024/01/07 03:42:48;;;;;;;0.00;0.00;;;26.40;46.60;;;;;;5091813;28;20205;-41
2024/01/07 03:45:19;;;;;;;0.00;0.00;;;26.40;46.60;;;;;;5091786;28;20754;-41
2024/01/07 03:47:50;;;;;;;0.00;0.00;;;26.50;46.60;;;;;;5091299;28;20194;-42
2024/01/07 03:50:20;;;;;;;0.00;0.00;;;26.50;46.60;;;;;;5091362;28;20236;-44
2024/01/07 03:52:51;;;;;;;0.00;0.00;;;26.50;46.60;;;;;;5091924;28;20206;-43
2024/01/07 03:55:24;;;;;;;0.00;0.00;;;26.50;46.70;;;;;;5091848;28;20206;-43
2024/01/07 03:57:54;;;;;;;0.00;0.00;;;26.50;46.60;;;;;;5091973;28;20190;-44
2024/01/07 04:00:25;;;;;;;0.00;0.00;;;26.50;46.60;;;;;;5092159;28;20218;-41
2024/01/07 04:02:56;;;;;;;0.00;0.00;;;26.60;46.70;;;;;;5092096;28;20189;-41
2024/01/07 04:05:26;;;;;;;0.00;0.00;;;26.50;46.60;;;;;;5091600;28;20218;-42
2024/01/07 04:07:57;;;;;;;0.00;0.00;;;26.50;46.60;;;;;;5091757;28;20197;-40
2024/01/07 04:10:30;;;;;;;0.00;0.00;;;26.60;46.60;;;;;;5091712;28;20218;-42
2024/01/07 04:13:01;;;;;;;0.00;0.00;;;26.50;46.60;;;;;;5091444;28;20645;-46
2024/01/07 04:15:31;;;;;;;0.00;0.00;;;26.60;46.60;;;;;;5071472;28;20199;-41
2024/01/07 04:18:05;;;;;;;0.00;0.00;;;26.60;46.60;;;;;;5071827;28;20194;-44
2024/01/07 04:20:35;;;;;;;0.00;0.00;;;26.60;46.60;;;;;;5070843;28;20291;-46
2024/01/07 04:23:06;;;;;;;0.00;0.00;;;26.60;46.60;;;;;;5071285;28;20205;-41
2024/01/07 04:25:40;;;;;;;0.00;0.00;;;26.60;46.60;;;;;;5071462;28;20591;-42
2024/01/07 04:28:11;;;;;;;0.00;0.00;;;26.60;46.60;;;;;;5071206;28;20199;-44
2024/01/07 04:30:42;;;;;;;0.00;0.00;;;26.60;46.60;;;;;;5071071;28;20214;-42
2024/01/07 04:33:12;;;;;;;0.00;0.00;;;26.60;46.60;;;;;;5071303;28;20205;-44
2024/01/07 04:35:43;;;;;;;0.00;0.00;;;26.60;46.60;;;;;;5071631;28;20394;-45
2024/01/07 04:38:14;;;;;;;0.00;0.00;;;26.60;46.70;;;;;;5088638;28;20606;-43
2024/01/07 04:40:46;;;;;;;0.00;0.00;;;26.60;46.60;;;;;;5095648;28;20217;-41
2024/01/07 04:43:17;;;;;;;0.00;0.00;;;26.60;46.60;;;;;;5095562;28;20198;-41
2024/01/07 04:45:49;;;;;;;0.00;0.00;;;26.70;46.60;;;;;;5095524;28;20592;-41
2024/01/07 04:48:19;;;;;;;0.00;0.00;;;26.70;46.50;;;;;;5095491;28;20263;-41
2024/01/07 04:50:50;;;;;;;0.00;0.00;;;26.70;46.50;;;;;;5095189;28;20213;-42
2024/01/07 04:53:21;;;;;;;0.00;0.00;;;26.70;46.50;;;;;;5095046;28;20652;-42
2024/01/07 04:55:53;;;;;;;0.00;0.00;;;26.70;46.50;;;;;;5095355;28;20209;-42
2024/01/07 04:58:24;;;;;;;0.00;0.00;;;26.70;46.50;;;;;;5095302;28;20205;-42
2024/01/07 05:00:55;;;;;;;0.00;0.00;;;26.70;46.40;;;;;;5094998;28;20708;-43
2024/01/07 05:03:25;;;;;;;0.00;0.00;;;26.70;46.40;;;;;;5095404;28;20190;-43
2024/01/07 05:05:56;;;;;;;0.00;0.00;;;26.70;46.40;;;;;;5095169;28;20681;-42
2024/01/07 05:08:27;;;;;;;0.00;0.00;;;26.70;46.40;;;;;;5094726;28;20209;-40
2024/01/07 05:10:59;;;;;;;0.00;0.00;;;26.70;46.40;;;;;;5094991;28;20686;-44
2024/01/07 05:13:30;;;;;;;0.00;0.00;;;26.70;46.30;;;;;;5095257;28;20665;-41
2024/01/07 05:16:01;;;;;;;0.00;0.00;;;26.70;46.30;;;;;;5095067;28;20213;-43
2024/01/07 05:18:31;;;;;;;0.00;0.00;;;26.70;46.30;;;;;;5095478;28;20202;-40
2024/01/07 05:21:02;;;;;;;0.00;0.00;;;26.70;46.40;;;;;;5094966;28;20222;-41
2024/01/07 05:23:33;;;;;;;0.00;0.00;;;26.70;46.40;;;;;;5094596;28;20194;-43
2024/01/07 05:26:06;;;;;;;0.00;0.00;;;26.70;46.40;;;;;;5093970;28;20224;-41
2024/01/07 05:28:36;;;;;;;0.00;0.00;;;26.70;46.40;;;;;;5094336;28;20200;-41
2024/01/07 05:31:07;;;;;;;0.00;0.00;;;26.80;46.40;;;;;;5094602;28;20578;-42
2024/01/07 05:33:38;;;;;;;0.00;0.00;;;26.70;46.40;;;;;;5094381;28;20194;-45
2024/01/07 05:36:09;;;;;;;0.00;0.00;;;26.80;46.40;;;;;;5094135;28;20672;-41
2024/01/07 05:38:40;;;;;;;0.00;0.00;;;26.80;46.40;;;;;;5093974;28;20212;-40
2024/01/07 05:41:12;;;;;;;0.00;0.00;;;26.70;46.30;;;;;;5094806;28;20548;-42
2024/01/07 05:43:43;;;;;;;0.00;0.00;;;26.80;46.30;;;;;;5094124;28;20194;-41
2024/01/07 05:46:14;;;;;;;0.00;0.00;;;26.70;46.30;;;;;;5094477;28;20233;-44
2024/01/07 05:48:48;;;;;;;0.00;0.00;;;26.70;46.40;;;;;;5093280;28;20198;-43
2024/01/07 05:51:19;;;;;;;0.00;0.00;;;26.70;46.30;;;;;;5094257;28;20190;-41
2024/01/07 05:53:49;;;;;;;0.00;0.00;;;26.70;46.30;;;;;;5093866;28;20208;-45
2024/01/07 05:56:22;;;;;;;0.00;0.00;;;26.70;46.30;;;;;;5093734;28;20646;-40
2024/01/07 05:58:53;;;;;;;0.00;0.00;;;26.70;46.30;;;;;;5093916;28;20199;-40
2024/01/07 06:01:24;;;;;;;0.00;0.00;;;26.70;46.30;;;;;;5094004;28;20202;-43
2024/01/07 06:03:54;;;;;;;0.00;0.00;;;26.70;46.30;;;;;;5094145;28;20665;-43
2024/01/07 06:06:25;;;;;;;0.00;0.00;;;26.60;46.30;;;;;;5094053;28;20218;-42
2024/01/07 06:08:56;;;;;;;0.00;0.00;;;26.60;46.30;;;;;;5093557;28;20205;-44
2024/01/07 06:11:28;;;;;;;0.00;0.00;;;26.60;46.30;;;;;;5093499;28;20555;-41
2024/01/07 06:13:59;;;;;;;0.00;0.00;;;26.60;46.30;;;;;;5093632;28;20559;-42
2024/01/07 06:16:30;;;;;;;0.00;0.00;;;26.60;46.40;;;;;;5093647;28;20194;-41
2024/01/07 06:19:00;;;;;;;0.00;0.00;;;26.60;46.40;;;;;;5093946;28;20225;-41
2024/01/07 06:21:31;;;;;;;0.00;0.00;;;26.60;46.30;;;;;;5093438;28;20696;-40
2024/01/07 06:24:02;;;;;;;0.00;0.00;;;26.60;46.40;;;;;;5082279;28;20225;-43
2024/01/07 06:26:34;;;;;;;0.00;0.00;;;26.60;46.30;;;;;;5073636;28;20245;-40
2024/01/07 06:29:05;;;;;;;0.00;0.00;;;26.70;46.40;;;;;;5073355;28;20215;-43
2024/01/07 06:31:36;;;;;;;0.00;0.00;;;26.60;46.40;;;;;;5073300;28;20199;-43
2024/01/07 06:34:07;;;;;;;0.00;0.00;;;26.60;46.40;;;;;;5072565;28;20202;-41
2024/01/07 06:36:37;;;;;;;0.00;0.00;;;26.60;46.40;;;;;;5072753;28;20655;-43
2024/01/07 06:39:08;;;;;;;0.00;0.00;;;26.60;46.40;;;;;;5092834;28;20218;-43
2024/01/07 06:41:41;;;;;;;0.00;0.00;;;26.60;46.40;;;;;;5093085;28;20202;-43
2024/01/07 06:44:12;;;;;;;0.00;0.00;;;26.60;46.40;;;;;;5092783;28;20989;-41
2024/01/07 06:46:42;;;;;;;0.00;0.00;;;26.60;46.40;;;;;;5092789;28;20634;-40
2024/01/07 06:49:13;;;;;;;0.00;0.00;;;26.60;46.40;;;;;;5093068;28;20299;-41
2024/01/07 06:51:44;;;;;;;0.00;0.00;;;26.60;46.40;;;;;;5092941;28;20201;-40
2024/01/07 06:54:14;;;;;;;0.00;0.00;;;26.60;46.40;;;;;;5092771;28;20650;-40
2024/01/07 06:56:47;;;;;;;0.00;0.00;;;26.50;46.40;;;;;;5093015;28;20198;-41
2024/01/07 06:59:18;;;;;;;0.00;0.00;;;26.50;46.40;;;;;;5092662;28;20220;-41
2024/01/07 07:01:49;;;;;;;0.00;0.00;;;26.50;46.40;;;;;;5092950;28;20190;-39
2024/01/07 07:04:20;;;;;;;0.00;0.00;;;26.50;46.40;;;;;;5092705;28;20591;-42
2024/01/07 07:06:51;;;;;;;0.00;0.00;;;26.50;46.40;;;;;;5092546;28;20267;-40
2024/01/07 07:09:22;;;;;;;0.00;0.00;;;26.50;46.40;;;;;;5092194;28;20210;-40
2024/01/07 07:11:54;;;;;;;0.00;0.00;;;26.50;46.50;;;;;;5092495;28;20241;-40
2024/01/07 07:14:25;;;;;;;0.00;0.00;;;26.50;46.50;;;;;;5091077;28;20201;-40
2024/01/07 07:16:56;;;;;;;0.00;0.00;;;26.50;46.50;;;;;;5092072;28;20190;-40
2024/01/07 07:19:27;;;;;;;0.00;0.00;;;26.50;46.50;;;;;;5092523;28;20762;-40
2024/01/07 07:21:57;;;;;;;0.00;0.00;;;26.50;46.50;;;;;;5090159;28;20524;-40
2024/01/07 07:24:28;;;;;;;0.00;0.00;;;26.50;46.60;;;;;;5091227;28;20315;-40
2024/01/07 07:27:01;;;;;;;0.00;0.00;;;26.50;46.60;;;;;;5090063;28;20416;-40
2024/01/07 07:29:31;;;;;;;0.00;0.00;;;26.50;46.60;;;;;;5091710;28;20634;-43
2024/01/07 07:32:02;;;;;;;0.00;0.00;;;26.50;46.60;;;;;;5090017;28;20202;-41
2024/01/07 07:34:33;;;;;;;0.00;0.00;;;26.50;46.60;;;;;;5082385;28;20206;-40
2024/01/07 07:37:04;;;;;;;0.00;0.00;;;26.50;46.70;;;;;;5088113;28;20198;-40
2024/01/07 07:39:34;;;;;;;0.00;0.00;;;26.50;46.70;;;;;;5087404;28;20218;-41
2024/01/07 07:42:10;;;;;;;0.00;0.00;;;26.40;46.70;;;;;;5086198;28;20362;-41
2024/01/07 07:44:41;;;;;;;0.00;0.00;;;26.40;46.70;;;;;;5088279;28;20197;-41
2024/01/07 07:47:12;;;;;;;0.00;0.00;;;26.40;46.80;;;;;;5088939;28;20776;-40
2024/01/07 07:49:43;;;;;;;0.00;0.00;;;26.40;46.80;;;;;;5088168;28;20714;-40
2024/01/07 07:52:14;;;;;;;0.00;0.00;;;26.40;46.80;;;;;;5088372;28;20213;-41
2024/01/07 07:54:45;;;;;;;0.00;0.00;;;26.30;46.80;;;;;;5087517;28;20190;-41
2024/01/07 07:57:19;;;;;;;0.00;0.00;;;26.40;46.90;;;;;;5088597;28;20205;-40
2024/01/07 07:59:50;;;;;;;0.00;0.00;;;26.40;46.90;;;;;;5088134;28;20220;-40
2024/01/07 08:02:21;;;;;;;0.00;0.00;;;26.30;46.90;;;;;;5087844;28;20207;-43
2024/01/07 08:04:52;;;;;;;0.00;0.00;;;26.30;46.90;;;;;;5087103;28;20189;-40
2024/01/07 08:07:22;;;;;;;0.00;0.00;;;26.30;46.90;;;;;;5087977;28;20225;-41
2024/01/07 08:09:54;;;;;;;0.00;0.00;;;26.30;46.90;;;;;;5087586;28;20221;-41
2024/01/07 08:12:26;;;;;;;0.00;0.00;;;26.30;46.90;;;;;;5085329;28;20225;-40
2024/01/07 08:14:57;;;;;;;0.00;0.00;;;26.20;46.90;;;;;;5087838;28;20182;-40
2024/01/07 08:17:28;;;;;;;0.00;0.00;;;26.20;46.90;;;;;;5087722;28;20559;-41
2024/01/07 08:19:59;;;;;;;0.00;0.00;;;26.20;46.90;;;;;;5087128;28;20228;-41
2024/01/07 08:22:29;;;;;;;0.00;0.00;;;26.20;47.00;;;;;;5086245;28;20190;-41
2024/01/07 08:25:00;;;;;;;0.00;0.00;;;26.20;47.00;;;;;;5072911;28;20200;-43
2024/01/07 08:27:33;;;;;;;0.00;0.00;;;26.20;47.00;;;;;;5087601;28;20244;-41
2024/01/07 08:30:04;;;;;;;0.00;0.00;;;26.10;47.00;;;;;;5087024;28;20221;-43
2024/01/07 08:32:35;;;;;;;0.00;0.00;;;26.10;47.10;;;;;;5087298;28;20198;-40
2024/01/07 08:35:06;;;;;;;0.00;0.00;;;26.10;47.10;;;;;;5086776;28;20194;-40
2024/01/07 08:37:37;;;;;;;0.00;0.00;;;26.00;47.00;;;;;;5087915;28;20205;-42
2024/01/07 08:40:09;;;;;;;0.00;0.00;;;26.00;47.10;;;;;;5087253;28;20229;-40
2024/01/07 08:42:42;;;;;;;0.00;0.00;;;26.00;47.10;;;;;;5087136;28;20201;-41
2024/01/07 08:45:13;;;;;;;0.00;0.00;;;26.00;47.80;;;;;;5092449;28;20612;-41
2024/01/07 08:47:44;;;;;;;0.00;0.00;;;26.00;47.20;;;;;;5107749;28;20237;-41
2024/01/07 08:50:14;;;;;;;0.00;0.00;;;26.00;47.20;;;;;;5107051;28;20213;-40
2024/01/07 08:52:46;;;;;;;0.00;0.00;;;25.90;47.10;;;;;;5099443;28;20234;-41
2024/01/07 08:55:17;;;;;;;0.00;0.00;;;25.90;47.20;;;;;;5087754;28;20213;-40
2024/01/07 08:57:49;;;;;;;0.00;0.00;;;25.90;47.20;;;;;;5086729;28;20202;-41
2024/01/07 09:00:25;;;;;;;0.00;0.00;;;25.90;47.30;;;;;;5087025;28;20240;-40
2024/01/07 09:02:56;;;;;;;0.00;0.00;;;25.90;47.30;;;;;;5087266;28;20198;-41
2024/01/07 09:05:27;;;;;;;0.00;0.00;;;25.90;47.30;;;;;;5086319;28;20510;-40
2024/01/07 09:07:57;;;;;;;0.00;0.00;;;25.80;47.20;;;;;;5086662;28;20265;-41
2024/01/07 09:10:28;;;;;;;0.00;0.00;;;25.80;47.30;;;;;;5087422;28;20217;-39
2024/01/07 09:13:01;;;;;;;0.00;0.00;;;25.80;47.30;;;;;;5087240;28;20559;-40
2024/01/07 09:15:31;;;;;;;0.00;0.00;;;25.80;47.40;;;;;;5092928;28;20198;-40
2024/01/07 09:18:03;;;;;;;0.00;0.00;;;25.70;47.40;;;;;;5098765;28;20709;-40
2024/01/07 09:20:33;;;;;;;0.00;0.00;;;25.70;47.40;;;;;;5086586;28;20218;-40
2024/01/07 09:23:04;;;;;;;0.00;0.00;;;25.70;47.40;;;;;;5089357;28;20202;-43
2024/01/07 09:25:35;;;;;;;0.00;0.00;;;25.70;47.50;;;;;;5090889;28;20532;-41
2024/01/07 09:28:08;;;;;;;0.00;0.00;;;25.60;47.40;;;;;;5090588;28;20634;-40
2024/01/07 09:30:38;;;;;;;0.00;0.00;;;25.60;47.40;;;;;;5096961;28;20225;-43
2024/01/07 09:33:09;;;;;;;0.00;0.00;;;25.60;47.40;;;;;;5090724;28;20198;-41
2024/01/07 09:35:40;;;;;;;0.00;0.00;;;25.60;47.50;;;;;;5090542;28;20209;-40
2024/01/07 09:38:10;;;;;;;0.00;0.00;;;25.60;47.50;;;;;;5090438;28;20529;-42
2024/01/07 09:40:42;;;;;;;0.00;0.00;;;25.60;47.50;;;;;;5091815;28;20217;-41
2024/01/07 09:43:14;;;;;;;0.00;0.00;;;25.50;47.50;;;;;;5090526;28;20198;-43
2024/01/07 09:45:48;;;;;;;0.00;0.00;;;25.50;47.50;;;;;;5091171;28;20202;-44
2024/01/07 09:48:19;;;;;;;0.00;0.00;;;25.60;47.60;;;;;;5090312;28;20229;-40
2024/01/07 09:50:49;;;;;;;0.00;0.00;;;25.50;47.50;;;;;;5089664;28;20213;-47
2024/01/07 09:53:22;;;;;;;0.00;0.00;;;25.50;47.50;;;;;;5090553;28;20198;-41
2024/01/07 09:56:04;;;;;;;0.00;0.00;;;25.50;47.50;;;;;;5097949;28;20185;-42
2024/01/07 09:58:36;;;;;;;0.00;0.00;;;25.50;47.50;;;;;;5099392;28;20705;-40
2024/01/07 10:01:09;;;;;;;0.00;0.00;;;25.40;47.50;;;;;;5090196;28;20194;-41
2024/01/07 10:03:40;;;;;;;0.00;0.00;;;25.40;47.50;;;;;;5089954;28;20204;-40
2024/01/07 10:06:11;;;;;;;0.00;0.00;;;25.40;47.50;;;;;;5090728;28;20194;-45
2024/01/07 10:08:42;;;;;;;0.00;0.00;;;25.40;47.50;;;;;;5090148;28;20237;-40
2024/01/07 10:11:12;;;;;;;0.00;0.00;;;25.40;47.60;;;;;;5089833;28;20221;-41
2024/01/07 10:13:47;;;;;;;0.00;0.00;;;25.40;47.60;;;;;;5090175;28;20198;-41
2024/01/07 10:16:18;;;;;;;0.00;0.00;;;25.30;47.50;;;;;;5089541;28;20204;-44
2024/01/07 10:18:48;;;;;;;0.00;0.00;;;25.30;47.60;;;;;;5089426;28;20210;-43
2024/01/07 10:21:19;;;;;;;0.00;0.00;;;25.30;47.50;;;;;;5085745;28;20206;-41
2024/01/07 10:23:50;;;;;;;0.00;0.00;;;25.30;47.50;;;;;;5089749;28;20198;-41
2024/01/07 10:26:20;;;;;;;0.00;0.00;;;25.30;48.20;;;;;;5089822;28;20201;-41
2024/01/07 10:28:54;;;;;;;0.00;0.00;;;25.30;47.60;;;;;;5089658;28;20236;-42
2024/01/07 10:31:25;;;;;;;0.00;0.00;;;25.30;47.60;;;;;;5090402;28;20224;-44
2024/01/07 10:33:56;;;;;;;0.00;0.00;;;25.20;47.50;;;;;;5092118;28;20201;-45
2024/01/07 10:36:28;;;;;;;0.00;0.00;;;25.20;47.50;;;;;;5092779;28;20194;-46
2024/01/07 10:38:59;;;;;;;0.00;0.00;;;25.20;47.50;;;;;;5091841;28;20282;-44
2024/01/07 10:41:31;;;;;;;0.00;0.00;;;25.20;47.50;;;;;;5092904;28;20182;-45
2024/01/07 10:44:04;;;;;;;0.00;0.00;;;25.10;47.40;;;;;;5090957;28;20236;-45
2024/01/07 10:46:35;;;;;;;0.00;0.00;;;25.10;47.40;;;;;;5092363;28;20182;-46
2024/01/07 10:49:12;;;;;;;0.00;0.00;;;25.10;47.50;;;;;;5092046;28;20225;-43
2024/01/07 10:51:45;;;;;;;0.00;0.00;;;25.10;47.50;;;;;;5090981;28;20196;-44
2024/01/07 10:54:18;;;;;;;0.00;0.00;;;25.10;47.50;;;;;;5089626;28;20190;-46
2024/01/07 10:56:52;;;;;;;0.00;0.00;;;25.10;47.50;;;;;;5091995;28;20353;-46
2024/01/07 10:59:25;;;;;;;0.00;0.00;;;25.10;47.50;;;;;;5090436;28;20212;-42
2024/01/07 11:01:56;;;;;;;0.00;0.00;;;25.00;47.50;;;;;;5089766;28;20712;-43
2024/01/07 11:04:34;;;;;;;0.00;0.00;;;25.00;47.50;;;;;;5091905;28;20216;-46
2024/01/07 11:07:21;;;;;;;0.00;0.00;;;25.00;47.50;;;;;;5090602;28;20194;-46
2024/01/07 11:09:58;;;;;;;0.00;0.00;;;25.00;47.50;;;;;;5091583;28;20597;-45
2024/01/07 11:12:29;;;;;;;0.00;0.00;;;25.00;47.50;;;;;;5092239;28;20542;-46
2024/01/07 11:15:02;;;;;;;0.00;0.00;;;25.00;47.40;;;;;;5089833;28;20186;-46
2024/01/07 11:17:48;;;;;;;0.00;0.00;;;24.90;47.40;;;;;;5091833;28;20183;-43
2024/01/07 11:20:26;;;;;;;0.00;0.00;;;24.90;47.40;;;;;;5089240;28;20694;-44
2024/01/07 11:23:30;;;;;;;0.00;0.00;;;24.90;47.40;;;;;;5091425;28;20190;-44
2024/01/07 11:26:01;;;;;;;0.00;0.00;;;24.90;47.40;;;;;;5092465;28;20197;-44
2024/01/07 11:28:52;;;;;;;0.00;0.00;;;24.90;47.40;;;;;;5092217;28;20225;-45
2024/01/07 11:31:45;;;;;;;0.00;0.00;;;24.80;47.30;;;;;;5092455;28;20194;-46
2024/01/07 11:34:43;;;;;;;0.00;0.00;;;24.80;47.30;;;;;;5092622;28;20206;-42
2024/01/07 11:37:15;;;;;;;0.00;0.00;;;24.80;47.30;;;;;;5092011;28;20232;-44
2024/01/07 11:39:47;;;;;;;0.00;0.00;;;24.80;47.30;;;;;;5091498;28;20214;-44
2024/01/07 11:42:18;;;;;;;0.00;0.00;;;24.70;47.30;;;;;;5092093;28;20190;-47
2024/01/07 11:44:53;;;;;;;0.00;0.00;;;24.70;47.40;;;;;;5092404;28;20718;-47
2024/01/07 11:47:27;;;;;;;0.00;0.00;;;24.70;47.40;;;;;;5091581;28;20649;-44
2024/01/07 11:49:59;;;;;;;0.00;0.00;;;24.70;47.40;;;;;;5091621;28;20701;-45
2024/01/07 11:52:31;;;;;;;0.00;0.00;;;24.60;47.40;;;;;;5091705;28;20243;-47
2024/01/07 11:55:02;;;;;;;0.00;0.00;;;24.60;47.40;;;;;;5092165;28;20269;-47
2024/01/07 11:57:34;;;;;;;0.00;0.00;;;24.60;47.40;;;;;;5091714;28;20191;-43
2024/01/07 12:00:05;;;;;;;0.00;0.00;;;24.60;47.40;;;;;;5091610;28;20222;-44
2024/01/07 12:02:38;;;;;;;0.00;0.00;;;24.60;47.40;;;;;;5091616;28;20194;-47
2024/01/07 12:05:10;;;;;;;0.00;0.00;;;24.50;47.40;;;;;;5091248;28;20198;-44
2024/01/07 12:07:41;;;;;;;0.00;0.00;;;24.50;47.40;;;;;;5091632;28;20202;-45
2024/01/07 12:10:12;;;;;;;0.00;0.00;;;24.50;47.30;;;;;;5091413;28;20224;-43
2024/01/07 12:12:44;;;;;;;0.00;0.00;;;24.50;47.30;;;;;;5091607;28;20197;-44
2024/01/07 12:15:17;;;;;;;0.00;0.00;;;24.40;47.20;;;;;;5091304;28;20194;-42
2024/01/07 12:18:01;;;;;;;0.00;0.00;;;24.50;47.30;;;;;;5091180;28;20198;-47
2024/01/07 12:20:32;;;;;;;0.00;0.00;;;24.40;47.20;;;;;;5091438;28;20275;-44
2024/01/07 12:23:09;;;;;;;0.00;0.00;;;24.40;47.20;;;;;;5084204;28;20202;-44
2024/01/07 12:25:40;;;;;;;0.00;0.00;;;24.40;47.20;;;;;;5071384;28;20585;-40
2024/01/07 12:28:11;;;;;;;0.00;0.00;;;24.40;47.20;;;;;;5071419;28;20230;-42
2024/01/07 12:30:42;;;;;;;0.00;0.00;;;24.30;47.20;;;;;;5071606;28;20617;-42
2024/01/07 12:33:15;;;;;;;0.00;0.00;;;24.30;47.20;;;;;;5071175;28;20195;-41
2024/01/07 12:35:46;;;;;;;0.00;0.00;;;24.30;47.20;;;;;;5071654;28;20646;-45
2024/01/07 12:38:17;;;;;;;0.00;0.00;;;24.20;47.20;;;;;;5084677;28;20582;-40
2024/01/07 12:40:48;;;;;;;0.00;0.00;;;24.20;47.90;;;;;;5091182;28;20214;-40
2024/01/07 12:43:19;;;;;;;0.00;0.00;;;24.20;47.30;;;;;;5091348;28;20194;-41
2024/01/07 12:45:50;;;;;;;0.00;0.00;;;24.20;47.30;;;;;;5091461;28;20646;-42
2024/01/07 12:48:22;;;;;;;0.00;0.00;;;24.20;47.30;;;;;;5091355;28;20213;-46
2024/01/07 12:50:53;;;;;;;0.10;0.10;;;24.20;47.30;;;;;;5091106;28;20377;-44
2024/01/07 12:53:24;;;;;;;0.00;0.00;;;24.10;47.30;;;;;;5091221;28;20202;-49
2024/01/07 12:55:55;;;;;;;0.00;0.00;;;24.10;47.20;;;;;;5090936;28;20194;-43
2024/01/07 12:58:26;;;;;;;0.00;0.00;;;24.10;47.20;;;;;;5094222;28;20202;-41
2024/01/07 13:00:57;;;;;;;0.00;0.00;;;24.10;47.30;;;;;;5095111;28;20249;-42
2024/01/07 13:03:29;;;;;;;0.00;0.00;;;24.10;47.20;;;;;;5095147;28;20537;-43
2024/01/07 13:06:01;;;;;;;0.00;0.00;;;24.00;47.10;;;;;;5095265;28;20201;-47
2024/01/07 13:08:32;;;;;;;0.00;0.00;;;24.10;47.30;;;;;;5094788;28;20720;-46
2024/01/07 13:11:04;;;;;;;0.00;0.00;;;24.00;47.20;;;;;;5094544;28;20619;-51